This is the latest recevied weather packets stored in our database for station/object HB9DDE-10. If no packets are shown the sender has not sent any weather packets the latest 10 day(s).
| Time | Temp. | Humidity | Pressure | Rain* | Wind** | Luminosity | Snow |
|---|---|---|---|---|---|---|---|
| 1778021932 | 10° C | 91% | 1010.6 hPa | 0 mm | - | - | - |
| 1778021621 | 10° C | 92% | 1010.7 hPa | 0 mm | - | - | - |
| 1778021315 | 10° C | 91% | 1010.6 hPa | 0 mm | - | - | - |
| 1778021026 | 10° C | 91% | 1010.6 hPa | 0 mm | - | - | - |
| 1778020715 | 10° C | 90% | 1010.6 hPa | 0 mm | - | - | - |
| 1778020424 | 10° C | 90% | 1010.6 hPa | 0 mm | - | - | - |
| 1778020114 | 10° C | 90% | 1010.6 hPa | 0 mm | - | - | - |
| 1778019825 | 10° C | 91% | 1010.6 hPa | 0 mm | - | - | - |
| 1778019514 | 10° C | 91% | 1010.5 hPa | 0 mm | - | - | - |
| 1778019224 | 10° C | 91% | 1010.6 hPa | 0 mm | - | - | - |
| 1778018933 | 10° C | 91% | 1010.6 hPa | 0 mm | - | - | - |
| 1778018629 | 10° C | 90% | 1010.6 hPa | 0 mm | - | - | - |
| 1778018316 | 10.56° C | 89% | 1010.7 hPa | 0 mm | - | - | - |
| 1778018027 | 10.56° C | 88% | 1010.7 hPa | 0 mm | - | - | - |
| 1778017717 | 11.11° C | 86% | 1010.7 hPa | 0 mm | - | - | - |
| 1778017429 | 11.11° C | 85% | 1010.6 hPa | 0 mm | - | - | - |
| 1778017118 | 11.67° C | 84% | 1010.7 hPa | 0 mm | - | - | - |
| 1778016827 | 11.67° C | 83% | 1010.7 hPa | 0 mm | - | - | - |
| 1778016516 | 11.67° C | 83% | 1010.8 hPa | 0 mm | - | - | - |
| 1778015929 | 11.11° C | 85% | 1010.8 hPa | 0 mm | - | - | - |
| 1778015619 | 11.11° C | 88% | 1010.9 hPa | 0 mm | - | - | - |
| 1778015328 | 10.56° C | 87% | 1011 hPa | 0 mm | - | - | - |
| 1778015017 | 11.11° C | 86% | 1010.9 hPa | 0 mm | - | - | - |
| 1778014728 | 11.67° C | 84% | 1010.8 hPa | 0 mm | - | - | - |
| 1778014419 | 12.22° C | 83% | 1010.8 hPa | 0 mm | - | - | - |
* Rain latest hour (hover to see other rain measurements)
** Current wind speed in m/s (hover to see current wind gust speed)